Daniel Field Augusta US
ICAO: KDNL
IATA: DNL
Category: Medium
Scheduled Services: No

Elevation: 423 ft
TransAlt. 18000 ft.

Airport Communications:
AUGUSTA APP/DEP:126.8
ASOS:135.275
CLNC DEL:128.1
MACON RDO:122.3
CTAF/UNICOM:123.05

KDNL Zoom In..

Runways:

(A) RW 05 length 4002 ft width 100 ft
---- / hdg 50

(B) RW 11 length 3733 ft width 100 ft
---- / hdg 108

(C) RW 23 length 4002 ft width 100 ft
---- / hdg 230

(D) RW 29 length 3733 ft width 100 ft
---- / hdg 288

Location; KDNL
Day. 24 / Time. 13.38 Zulu
* Altimeter: 30.13
* Temperature: 24° c. 75.2°f.
* Wind from: 040° Speed 03 kn.
Dewpoint: 22° c.
Visibility: 6 Statute Miles.
Clouds: Overcast 600 ft.
Conditions: Mist.

KDNL 241338Z AUTO 04003KT 6SM BR OVC006 24/22 A3013 RMK AO2 T02390217


Wind From 040°
Speed 03 kn.

 
 
jpsmedia.com for Web Design SOUNDCLOUD worldairports.se 2018   terms of use